Springfield, CO

11:16 AM MST on February 01, 2015 (GMT -0700)
Shaw | Change Station
CLOSE
Current Station
Personal Weather Station
Location: Granada, CO
Elevation: 4121 ft
Nearby Weather Stations

Elev 4121 ft 37.66 °N, 102.46 °W | Updated 12 minutes ago

Partly Cloudy
Partly Cloudy
28.7 °F
Feels Like 19 °F
N
12.0
Wind Variable Wind from NNE
Gusts 21.0 mph

Today
High -- | Low -- °F
--% Chance of Precip.
Yesterday
High -- | Low -- °F
Precip. -- in
6:53 AM 5:14 PM
Waxing Gibbous, 95% visible
Pressure 30.24 in
Visibility 10.0 miles
Clouds Few 2900 ft
Scattered Clouds 3500 ft
Overcast 8000 ft
Windchill 19 °F
Dew Point 21 °F
Humidity 72%
Rainfall 0.00 in
Snow Depth Not available.
UV 1 out of 12
Pollen .30 out of 12
Air Quality Not available.
Flu Activity Not available.
METAR KLAA 011753Z AUTO 02010KT 10SM FEW029 SCT035 OVC080 M01/M07 A3020 RMK AO2 SLP238 T10061072 10006 21028 51024

More Conditions Fewer Conditions

Pressure 30.24 in
Visibility 10.0 miles
Clouds Few 2900 ft
Scattered Clouds 3500 ft
Overcast 8000 ft
Windchill 19 °F
Dew Point 21 °F
Humidity 72%
Rainfall 0.00 in
Snow Depth Not available.
UV 1 out of 12
Pollen .30 out of 12
Air Quality Not available.
Flu Activity Not available.
METAR KLAA 011753Z AUTO 02010KT 10SM FEW029 SCT035 OVC080 M01/M07 A3020 RMK AO2 SLP238 T10061072 10006 21028 51024

More Conditions Fewer Conditions

10-Day Weather Forecast

Almanac

Astronomy

Feb. 01, 2015 Rise Set
Actual Time
Civil Twilight
Nautical Twilight
Astronomical Twilight
Moon
Length of Visible Light
Length of Day
Tomorrow will be .
, % of the Moon is Illuminated

Today's Extremes

State Highs State Lows

Community

WunderPhotos

Upload Photos

1,792,420 photos uploaded!

WunderBlogs® & News

Nearby

Air Quality

  Air Quality AQ Index Pollutant
Not available.

Snow Depth

Station Depth Elevation

Earthquake Activity

City Distance Mag. Time & Date
Minimum magnitude displayed is 2.5.

Coastal Water Temperatures

Place Temperature

Nearby Weather Stations